sensor_id;sensor_type;location;lat;lon;timestamp;temperature;humidity
17813;DHT22;9030;50.792;8.320;2023-07-08T00:00:12;16.40;99.90
17813;DHT22;9030;50.792;8.320;2023-07-08T00:02:42;16.30;99.90
17813;DHT22;9030;50.792;8.320;2023-07-08T00:05:09;16.20;99.90
17813;DHT22;9030;50.792;8.320;2023-07-08T00:07:37;16.10;99.90
17813;DHT22;9030;50.792;8.320;2023-07-08T00:10:15;16.10;99.90
17813;DHT22;9030;50.792;8.320;2023-07-08T00:12:42;16.00;99.90
17813;DHT22;9030;50.792;8.320;2023-07-08T00:15:10;16.10;99.90
17813;DHT22;9030;50.792;8.320;2023-07-08T00:17:37;16.00;99.90
17813;DHT22;9030;50.792;8.320;2023-07-08T00:20:11;15.90;99.90
17813;DHT22;9030;50.792;8.320;2023-07-08T00:22:39;15.90;99.90
17813;DHT22;9030;50.792;8.320;2023-07-08T00:25:06;15.90;99.90
17813;DHT22;9030;50.792;8.320;2023-07-08T00:27:33;16.00;99.90
17813;DHT22;9030;50.792;8.320;2023-07-08T00:30:00;16.00;99.90
17813;DHT22;9030;50.792;8.320;2023-07-08T00:32:26;16.00;99.90
17813;DHT22;9030;50.792;8.320;2023-07-08T00:34:53;15.90;99.90
17813;DHT22;9030;50.792;8.320;2023-07-08T00:37:21;15.80;99.90
17813;DHT22;9030;50.792;8.320;2023-07-08T00:39:48;15.80;99.90
17813;DHT22;9030;50.792;8.320;2023-07-08T00:42:18;15.80;99.90
17813;DHT22;9030;50.792;8.320;2023-07-08T00:44:46;15.80;99.90
17813;DHT22;9030;50.792;8.320;2023-07-08T00:47:15;15.70;99.90
17813;DHT22;9030;50.792;8.320;2023-07-08T00:49:45;15.60;99.90
17813;DHT22;9030;50.792;8.320;2023-07-08T00:52:31;15.60;99.90
17813;DHT22;9030;50.792;8.320;2023-07-08T00:54:59;15.60;99.90
17813;DHT22;9030;50.792;8.320;2023-07-08T00:57:30;15.60;99.90
17813;DHT22;9030;50.792;8.320;2023-07-08T01:00:00;15.50;99.90
17813;DHT22;9030;50.792;8.320;2023-07-08T01:02:30;15.30;99.90
17813;DHT22;9030;50.792;8.320;2023-07-08T01:05:05;15.20;99.90
17813;DHT22;9030;50.792;8.320;2023-07-08T01:07:34;15.10;99.90
17813;DHT22;9030;50.792;8.320;2023-07-08T01:10:04;14.90;99.90
17813;DHT22;9030;50.792;8.320;2023-07-08T01:12:35;14.90;99.90
17813;DHT22;9030;50.792;8.320;2023-07-08T01:15:05;14.80;99.90
17813;DHT22;9030;50.792;8.320;2023-07-08T01:17:33;14.70;99.90
17813;DHT22;9030;50.792;8.320;2023-07-08T01:20:00;14.70;99.90
17813;DHT22;9030;50.792;8.320;2023-07-08T01:22:31;14.60;99.90
17813;DHT22;9030;50.792;8.320;2023-07-08T01:24:59;14.60;99.90
17813;DHT22;9030;50.792;8.320;2023-07-08T01:27:30;14.60;99.90
17813;DHT22;9030;50.792;8.320;2023-07-08T01:29:58;14.70;99.90
17813;DHT22;9030;50.792;8.320;2023-07-08T01:32:24;14.60;99.90
17813;DHT22;9030;50.792;8.320;2023-07-08T01:34:53;14.70;99.90
17813;DHT22;9030;50.792;8.320;2023-07-08T01:37:34;14.90;99.90
17813;DHT22;9030;50.792;8.320;2023-07-08T01:40:24;14.90;99.90
17813;DHT22;9030;50.792;8.320;2023-07-08T01:42:51;15.00;99.90
17813;DHT22;9030;50.792;8.320;2023-07-08T01:45:20;14.80;99.90
17813;DHT22;9030;50.792;8.320;2023-07-08T01:47:50;14.70;99.90
17813;DHT22;9030;50.792;8.320;2023-07-08T01:50:18;14.60;99.90
17813;DHT22;9030;50.792;8.320;2023-07-08T01:52:48;14.50;99.90
17813;DHT22;9030;50.792;8.320;2023-07-08T01:55:21;14.40;99.90
17813;DHT22;9030;50.792;8.320;2023-07-08T01:57:47;14.40;99.90
17813;DHT22;9030;50.792;8.320;2023-07-08T02:00:14;14.40;99.90
17813;DHT22;9030;50.792;8.320;2023-07-08T02:02:41;14.30;99.90
17813;DHT22;9030;50.792;8.320;2023-07-08T02:05:08;14.30;99.90
17813;DHT22;9030;50.792;8.320;2023-07-08T02:07:35;14.20;99.90
17813;DHT22;9030;50.792;8.320;2023-07-08T02:10:03;14.20;99.90
17813;DHT22;9030;50.792;8.320;2023-07-08T02:12:30;14.10;99.90
17813;DHT22;9030;50.792;8.320;2023-07-08T02:15:00;14.10;99.90
17813;DHT22;9030;50.792;8.320;2023-07-08T02:17:27;14.10;99.90
17813;DHT22;9030;50.792;8.320;2023-07-08T02:19:54;14.10;99.90
17813;DHT22;9030;50.792;8.320;2023-07-08T02:22:21;14.00;99.90
17813;DHT22;9030;50.792;8.320;2023-07-08T02:24:47;13.90;99.90
17813;DHT22;9030;50.792;8.320;2023-07-08T02:27:15;13.90;99.90
17813;DHT22;9030;50.792;8.320;2023-07-08T02:29:42;13.80;99.90
17813;DHT22;9030;50.792;8.320;2023-07-08T02:32:09;13.80;99.90
17813;DHT22;9030;50.792;8.320;2023-07-08T02:34:36;13.80;99.90
17813;DHT22;9030;50.792;8.320;2023-07-08T02:37:03;13.90;99.90
17813;DHT22;9030;50.792;8.320;2023-07-08T02:39:30;13.90;99.90
17813;DHT22;9030;50.792;8.320;2023-07-08T02:41:56;14.00;99.90
17813;DHT22;9030;50.792;8.320;2023-07-08T02:44:24;14.00;99.90
17813;DHT22;9030;50.792;8.320;2023-07-08T02:46:51;13.80;99.90
17813;DHT22;9030;50.792;8.320;2023-07-08T02:49:18;13.80;99.90
17813;DHT22;9030;50.792;8.320;2023-07-08T02:51:45;13.80;99.90
17813;DHT22;9030;50.792;8.320;2023-07-08T02:54:11;13.80;99.90
17813;DHT22;9030;50.792;8.320;2023-07-08T02:56:39;13.90;99.90
17813;DHT22;9030;50.792;8.320;2023-07-08T02:59:05;13.90;99.90
17813;DHT22;9030;50.792;8.320;2023-07-08T03:01:34;13.90;99.90
17813;DHT22;9030;50.792;8.320;2023-07-08T03:04:07;13.90;99.90
17813;DHT22;9030;50.792;8.320;2023-07-08T03:06:34;13.90;99.90
17813;DHT22;9030;50.792;8.320;2023-07-08T03:09:01;14.10;99.90
17813;DHT22;9030;50.792;8.320;2023-07-08T03:11:27;14.10;99.90
17813;DHT22;9030;50.792;8.320;2023-07-08T03:13:54;14.10;99.90
17813;DHT22;9030;50.792;8.320;2023-07-08T03:16:21;14.20;99.90
17813;DHT22;9030;50.792;8.320;2023-07-08T03:18:49;14.30;99.90
17813;DHT22;9030;50.792;8.320;2023-07-08T03:21:17;14.30;99.90
17813;DHT22;9030;50.792;8.320;2023-07-08T03:23:44;14.20;99.90
17813;DHT22;9030;50.792;8.320;2023-07-08T03:26:13;14.30;99.90
17813;DHT22;9030;50.792;8.320;2023-07-08T03:28:39;14.30;99.90
17813;DHT22;9030;50.792;8.320;2023-07-08T03:31:08;14.30;99.90
17813;DHT22;9030;50.792;8.320;2023-07-08T03:33:35;14.40;99.90
17813;DHT22;9030;50.792;8.320;2023-07-08T03:36:04;14.60;99.90
17813;DHT22;9030;50.792;8.320;2023-07-08T03:38:31;14.80;99.90
17813;DHT22;9030;50.792;8.320;2023-07-08T03:40:57;15.00;99.90
17813;DHT22;9030;50.792;8.320;2023-07-08T03:43:24;15.00;99.90
17813;DHT22;9030;50.792;8.320;2023-07-08T03:45:51;14.90;99.90
17813;DHT22;9030;50.792;8.320;2023-07-08T03:48:17;14.90;99.90
17813;DHT22;9030;50.792;8.320;2023-07-08T03:50:44;14.90;99.90
17813;DHT22;9030;50.792;8.320;2023-07-08T03:53:12;14.90;99.90
17813;DHT22;9030;50.792;8.320;2023-07-08T03:55:39;14.90;99.90
17813;DHT22;9030;50.792;8.320;2023-07-08T03:58:05;14.90;99.90
17813;DHT22;9030;50.792;8.320;2023-07-08T04:00:32;14.90;99.90
17813;DHT22;9030;50.792;8.320;2023-07-08T04:02:59;14.90;99.90
17813;DHT22;9030;50.792;8.320;2023-07-08T04:05:25;14.80;99.90
17813;DHT22;9030;50.792;8.320;2023-07-08T04:07:52;14.80;99.90
17813;DHT22;9030;50.792;8.320;2023-07-08T04:10:20;14.70;99.90
17813;DHT22;9030;50.792;8.320;2023-07-08T04:12:47;14.80;99.90
17813;DHT22;9030;50.792;8.320;2023-07-08T04:15:14;14.90;99.90
17813;DHT22;9030;50.792;8.320;2023-07-08T04:17:43;14.90;99.90
17813;DHT22;9030;50.792;8.320;2023-07-08T04:20:11;14.80;99.90
17813;DHT22;9030;50.792;8.320;2023-07-08T04:22:39;14.70;99.90
17813;DHT22;9030;50.792;8.320;2023-07-08T04:25:06;14.60;99.90
17813;DHT22;9030;50.792;8.320;2023-07-08T04:27:34;14.60;99.90
17813;DHT22;9030;50.792;8.320;2023-07-08T04:30:01;14.50;99.90
17813;DHT22;9030;50.792;8.320;2023-07-08T04:32:29;14.50;99.90
17813;DHT22;9030;50.792;8.320;2023-07-08T04:34:56;14.50;99.90
17813;DHT22;9030;50.792;8.320;2023-07-08T04:37:22;14.60;99.90
17813;DHT22;9030;50.792;8.320;2023-07-08T04:39:49;14.50;99.90
17813;DHT22;9030;50.792;8.320;2023-07-08T04:42:16;14.60;99.90
17813;DHT22;9030;50.792;8.320;2023-07-08T04:44:44;14.50;99.90
17813;DHT22;9030;50.792;8.320;2023-07-08T04:47:13;14.50;99.90
17813;DHT22;9030;50.792;8.320;2023-07-08T04:49:39;14.50;99.90
17813;DHT22;9030;50.792;8.320;2023-07-08T04:52:09;14.50;99.90
17813;DHT22;9030;50.792;8.320;2023-07-08T04:54:36;14.50;99.90
17813;DHT22;9030;50.792;8.320;2023-07-08T04:57:03;14.60;99.90
17813;DHT22;9030;50.792;8.320;2023-07-08T04:59:29;14.70;99.90
17813;DHT22;9030;50.792;8.320;2023-07-08T05:02:01;14.80;99.90
17813;DHT22;9030;50.792;8.320;2023-07-08T05:04:28;14.90;99.90
17813;DHT22;9030;50.792;8.320;2023-07-08T05:06:55;15.00;99.90
17813;DHT22;9030;50.792;8.320;2023-07-08T05:09:21;15.40;99.90
17813;DHT22;9030;50.792;8.320;2023-07-08T05:11:51;15.90;99.90
17813;DHT22;9030;50.792;8.320;2023-07-08T05:14:18;16.40;99.90
17813;DHT22;9030;50.792;8.320;2023-07-08T05:16:45;16.90;99.90
17813;DHT22;9030;50.792;8.320;2023-07-08T05:19:13;17.40;99.90
17813;DHT22;9030;50.792;8.320;2023-07-08T05:21:40;17.80;99.90
17813;DHT22;9030;50.792;8.320;2023-07-08T05:24:06;18.20;99.90
17813;DHT22;9030;50.792;8.320;2023-07-08T05:26:33;18.40;99.90
17813;DHT22;9030;50.792;8.320;2023-07-08T05:29:00;18.70;99.90
17813;DHT22;9030;50.792;8.320;2023-07-08T05:31:27;18.40;99.90
17813;DHT22;9030;50.792;8.320;2023-07-08T05:33:54;18.50;99.90
17813;DHT22;9030;50.792;8.320;2023-07-08T05:36:22;18.80;99.90
17813;DHT22;9030;50.792;8.320;2023-07-08T05:38:49;19.00;99.90
17813;DHT22;9030;50.792;8.320;2023-07-08T05:41:15;19.40;99.90
17813;DHT22;9030;50.792;8.320;2023-07-08T05:43:42;19.90;99.90
17813;DHT22;9030;50.792;8.320;2023-07-08T05:46:09;20.00;99.90
17813;DHT22;9030;50.792;8.320;2023-07-08T05:48:36;20.10;99.90
17813;DHT22;9030;50.792;8.320;2023-07-08T05:51:03;19.90;99.90
17813;DHT22;9030;50.792;8.320;2023-07-08T05:53:31;20.00;99.90
17813;DHT22;9030;50.792;8.320;2023-07-08T05:55:57;20.20;99.90
17813;DHT22;9030;50.792;8.320;2023-07-08T05:58:26;20.40;99.90
17813;DHT22;9030;50.792;8.320;2023-07-08T06:00:55;20.80;99.90
17813;DHT22;9030;50.792;8.320;2023-07-08T06:03:25;21.00;99.90
17813;DHT22;9030;50.792;8.320;2023-07-08T06:05:54;21.30;99.90
17813;DHT22;9030;50.792;8.320;2023-07-08T06:08:21;21.30;99.90
17813;DHT22;9030;50.792;8.320;2023-07-08T06:10:50;21.60;99.90
17813;DHT22;9030;50.792;8.320;2023-07-08T06:13:17;21.80;99.90
17813;DHT22;9030;50.792;8.320;2023-07-08T06:15:43;21.90;99.90
17813;DHT22;9030;50.792;8.320;2023-07-08T06:18:10;22.20;99.90
17813;DHT22;9030;50.792;8.320;2023-07-08T06:20:37;22.60;99.90
17813;DHT22;9030;50.792;8.320;2023-07-08T06:23:04;22.70;99.90
17813;DHT22;9030;50.792;8.320;2023-07-08T06:25:31;22.80;99.90
17813;DHT22;9030;50.792;8.320;2023-07-08T06:28:00;22.70;99.90
17813;DHT22;9030;50.792;8.320;2023-07-08T06:30:26;22.70;99.90
17813;DHT22;9030;50.792;8.320;2023-07-08T06:32:53;23.00;99.90
17813;DHT22;9030;50.792;8.320;2023-07-08T06:35:19;23.00;99.90
17813;DHT22;9030;50.792;8.320;2023-07-08T06:37:46;23.10;99.90
17813;DHT22;9030;50.792;8.320;2023-07-08T06:40:13;23.40;99.90
17813;DHT22;9030;50.792;8.320;2023-07-08T06:42:39;23.80;99.90
17813;DHT22;9030;50.792;8.320;2023-07-08T06:45:09;24.00;99.90
17813;DHT22;9030;50.792;8.320;2023-07-08T06:47:35;24.40;99.90
17813;DHT22;9030;50.792;8.320;2023-07-08T06:50:02;24.60;99.90
17813;DHT22;9030;50.792;8.320;2023-07-08T06:52:29;24.90;99.90
17813;DHT22;9030;50.792;8.320;2023-07-08T06:54:59;25.00;99.90
17813;DHT22;9030;50.792;8.320;2023-07-08T06:57:27;25.10;99.90
17813;DHT22;9030;50.792;8.320;2023-07-08T06:59:53;25.30;99.90
17813;DHT22;9030;50.792;8.320;2023-07-08T07:02:21;25.40;99.90
17813;DHT22;9030;50.792;8.320;2023-07-08T07:04:48;25.60;99.90
17813;DHT22;9030;50.792;8.320;2023-07-08T07:07:15;26.00;99.90
17813;DHT22;9030;50.792;8.320;2023-07-08T07:09:41;25.90;99.90
17813;DHT22;9030;50.792;8.320;2023-07-08T07:12:08;25.60;99.90
17813;DHT22;9030;50.792;8.320;2023-07-08T07:14:35;25.40;99.90
17813;DHT22;9030;50.792;8.320;2023-07-08T07:17:02;25.60;99.90
17813;DHT22;9030;50.792;8.320;2023-07-08T07:19:30;25.70;99.90
17813;DHT22;9030;50.792;8.320;2023-07-08T07:21:56;25.70;99.90
17813;DHT22;9030;50.792;8.320;2023-07-08T07:24:23;25.60;99.90
17813;DHT22;9030;50.792;8.320;2023-07-08T07:26:50;25.90;99.90
17813;DHT22;9030;50.792;8.320;2023-07-08T07:29:17;26.30;99.90
17813;DHT22;9030;50.792;8.320;2023-07-08T07:31:44;26.70;99.90
17813;DHT22;9030;50.792;8.320;2023-07-08T07:34:13;27.00;99.90
17813;DHT22;9030;50.792;8.320;2023-07-08T07:36:41;27.20;99.90
17813;DHT22;9030;50.792;8.320;2023-07-08T07:39:07;27.40;99.90
17813;DHT22;9030;50.792;8.320;2023-07-08T07:41:34;27.40;99.90
17813;DHT22;9030;50.792;8.320;2023-07-08T07:44:01;27.60;99.90
17813;DHT22;9030;50.792;8.320;2023-07-08T07:46:27;27.90;99.90
17813;DHT22;9030;50.792;8.320;2023-07-08T07:48:54;28.10;99.90
17813;DHT22;9030;50.792;8.320;2023-07-08T07:51:21;28.20;99.90
17813;DHT22;9030;50.792;8.320;2023-07-08T07:53:49;28.40;99.90
17813;DHT22;9030;50.792;8.320;2023-07-08T07:56:15;28.40;99.90
17813;DHT22;9030;50.792;8.320;2023-07-08T07:58:42;28.10;99.90
17813;DHT22;9030;50.792;8.320;2023-07-08T08:01:09;28.00;99.90
17813;DHT22;9030;50.792;8.320;2023-07-08T08:03:35;28.10;99.90
17813;DHT22;9030;50.792;8.320;2023-07-08T08:06:02;28.80;99.90
17813;DHT22;9030;50.792;8.320;2023-07-08T08:08:29;29.20;99.90
17813;DHT22;9030;50.792;8.320;2023-07-08T08:10:57;29.00;99.90
17813;DHT22;9030;50.792;8.320;2023-07-08T08:13:23;28.40;99.90
17813;DHT22;9030;50.792;8.320;2023-07-08T08:15:55;28.40;99.90
17813;DHT22;9030;50.792;8.320;2023-07-08T08:18:22;28.70;99.90
17813;DHT22;9030;50.792;8.320;2023-07-08T08:20:50;28.90;99.90
17813;DHT22;9030;50.792;8.320;2023-07-08T08:23:17;29.10;99.90
17813;DHT22;9030;50.792;8.320;2023-07-08T08:25:44;29.20;99.90
17813;DHT22;9030;50.792;8.320;2023-07-08T08:28:11;29.30;99.90
17813;DHT22;9030;50.792;8.320;2023-07-08T08:30:38;29.10;99.90
17813;DHT22;9030;50.792;8.320;2023-07-08T08:33:05;29.20;99.90
17813;DHT22;9030;50.792;8.320;2023-07-08T08:35:31;29.50;99.90
17813;DHT22;9030;50.792;8.320;2023-07-08T08:37:58;29.50;99.50
17813;DHT22;9030;50.792;8.320;2023-07-08T08:40:25;29.60;99.00
17813;DHT22;9030;50.792;8.320;2023-07-08T08:42:56;29.50;97.70
17813;DHT22;9030;50.792;8.320;2023-07-08T08:45:26;29.60;98.30
17813;DHT22;9030;50.792;8.320;2023-07-08T08:47:58;29.60;96.80
17813;DHT22;9030;50.792;8.320;2023-07-08T08:50:30;29.90;98.40
17813;DHT22;9030;50.792;8.320;2023-07-08T08:53:01;30.20;98.70
17813;DHT22;9030;50.792;8.320;2023-07-08T08:55:29;30.00;97.30
17813;DHT22;9030;50.792;8.320;2023-07-08T08:58:02;29.80;98.80
17813;DHT22;9030;50.792;8.320;2023-07-08T09:00:41;30.40;98.20
17813;DHT22;9030;50.792;8.320;2023-07-08T09:03:14;30.70;97.70
17813;DHT22;9030;50.792;8.320;2023-07-08T09:05:42;31.00;95.50
17813;DHT22;9030;50.792;8.320;2023-07-08T09:08:13;31.20;94.80
17813;DHT22;9030;50.792;8.320;2023-07-08T09:10:44;31.30;93.10
17813;DHT22;9030;50.792;8.320;2023-07-08T09:13:16;31.00;93.30
17813;DHT22;9030;50.792;8.320;2023-07-08T09:15:48;30.80;93.90
17813;DHT22;9030;50.792;8.320;2023-07-08T09:18:20;30.50;92.90
17813;DHT22;9030;50.792;8.320;2023-07-08T09:20:50;30.80;94.60
17813;DHT22;9030;50.792;8.320;2023-07-08T09:23:21;31.10;93.70
17813;DHT22;9030;50.792;8.320;2023-07-08T09:25:52;31.50;93.90
17813;DHT22;9030;50.792;8.320;2023-07-08T09:28:20;32.00;92.70
17813;DHT22;9030;50.792;8.320;2023-07-08T09:30:52;31.50;91.70
17813;DHT22;9030;50.792;8.320;2023-07-08T09:33:19;31.80;93.20
17813;DHT22;9030;50.792;8.320;2023-07-08T09:35:47;31.10;92.10
17813;DHT22;9030;50.792;8.320;2023-07-08T09:38:16;31.60;92.90
17813;DHT22;9030;50.792;8.320;2023-07-08T09:40:47;32.00;90.30
17813;DHT22;9030;50.792;8.320;2023-07-08T09:43:23;32.80;91.30
17813;DHT22;9030;50.792;8.320;2023-07-08T09:45:52;33.40;89.80
17813;DHT22;9030;50.792;8.320;2023-07-08T09:48:25;33.00;87.10
17813;DHT22;9030;50.792;8.320;2023-07-08T09:50:54;32.30;90.70
17813;DHT22;9030;50.792;8.320;2023-07-08T09:53:22;31.40;89.00
17813;DHT22;9030;50.792;8.320;2023-07-08T09:55:49;31.80;91.20
17813;DHT22;9030;50.792;8.320;2023-07-08T09:58:23;32.40;90.10
17813;DHT22;9030;50.792;8.320;2023-07-08T10:00:57;32.20;88.80
17813;DHT22;9030;50.792;8.320;2023-07-08T10:03:26;32.50;88.10
17813;DHT22;9030;50.792;8.320;2023-07-08T10:05:55;32.40;88.40
17813;DHT22;9030;50.792;8.320;2023-07-08T10:08:25;33.10;90.40
17813;DHT22;9030;50.792;8.320;2023-07-08T10:10:58;33.40;86.60
17813;DHT22;9030;50.792;8.320;2023-07-08T10:13:33;33.50;86.50
17813;DHT22;9030;50.792;8.320;2023-07-08T10:16:12;33.60;87.00
17813;DHT22;9030;50.792;8.320;2023-07-08T10:18:40;33.20;89.80
17813;DHT22;9030;50.792;8.320;2023-07-08T10:21:12;33.60;87.20
17813;DHT22;9030;50.792;8.320;2023-07-08T10:23:44;33.70;88.30
17813;DHT22;9030;50.792;8.320;2023-07-08T10:26:22;33.80;85.80
17813;DHT22;9030;50.792;8.320;2023-07-08T10:29:00;33.90;84.20
17813;DHT22;9030;50.792;8.320;2023-07-08T10:31:41;33.90;82.90
17813;DHT22;9030;50.792;8.320;2023-07-08T10:34:31;34.40;86.20
17813;DHT22;9030;50.792;8.320;2023-07-08T10:37:04;33.40;82.10
17813;DHT22;9030;50.792;8.320;2023-07-08T10:39:49;32.90;82.50
17813;DHT22;9030;50.792;8.320;2023-07-08T10:42:27;33.40;85.10
17813;DHT22;9030;50.792;8.320;2023-07-08T10:45:05;33.80;85.80
17813;DHT22;9030;50.792;8.320;2023-07-08T10:47:43;33.20;85.70
17813;DHT22;9030;50.792;8.320;2023-07-08T10:50:26;32.70;83.80
17813;DHT22;9030;50.792;8.320;2023-07-08T10:53:02;32.60;85.10
17813;DHT22;9030;50.792;8.320;2023-07-08T10:55:38;32.60;84.70
17813;DHT22;9030;50.792;8.320;2023-07-08T10:58:20;32.90;88.00
17813;DHT22;9030;50.792;8.320;2023-07-08T11:00:57;33.10;86.40
17813;DHT22;9030;50.792;8.320;2023-07-08T11:03:52;33.60;86.10
17813;DHT22;9030;50.792;8.320;2023-07-08T11:06:26;33.30;84.00
17813;DHT22;9030;50.792;8.320;2023-07-08T11:08:56;33.00;82.80
17813;DHT22;9030;50.792;8.320;2023-07-08T11:11:31;33.20;84.30
17813;DHT22;9030;50.792;8.320;2023-07-08T11:14:04;32.60;83.30
17813;DHT22;9030;50.792;8.320;2023-07-08T11:16:35;32.90;84.50
17813;DHT22;9030;50.792;8.320;2023-07-08T11:19:08;32.60;84.70
17813;DHT22;9030;50.792;8.320;2023-07-08T11:21:39;33.10;84.70
17813;DHT22;9030;50.792;8.320;2023-07-08T11:24:12;33.80;83.30
17813;DHT22;9030;50.792;8.320;2023-07-08T11:26:43;34.40;84.10
17813;DHT22;9030;50.792;8.320;2023-07-08T11:29:15;34.20;82.90
17813;DHT22;9030;50.792;8.320;2023-07-08T11:31:44;33.80;80.90
17813;DHT22;9030;50.792;8.320;2023-07-08T11:34:14;33.40;76.00
17813;DHT22;9030;50.792;8.320;2023-07-08T11:36:42;33.60;79.40
17813;DHT22;9030;50.792;8.320;2023-07-08T11:39:28;33.60;79.70
17813;DHT22;9030;50.792;8.320;2023-07-08T11:42:16;33.50;80.20
17813;DHT22;9030;50.792;8.320;2023-07-08T11:44:46;33.80;81.40
17813;DHT22;9030;50.792;8.320;2023-07-08T11:47:20;34.30;81.00
17813;DHT22;9030;50.792;8.320;2023-07-08T11:49:50;34.60;77.50
17813;DHT22;9030;50.792;8.320;2023-07-08T11:52:19;34.40;76.30
17813;DHT22;9030;50.792;8.320;2023-07-08T11:54:48;34.10;76.70
17813;DHT22;9030;50.792;8.320;2023-07-08T11:57:28;34.20;76.80
17813;DHT22;9030;50.792;8.320;2023-07-08T12:00:17;34.60;75.20
17813;DHT22;9030;50.792;8.320;2023-07-08T12:02:52;34.80;75.70
17813;DHT22;9030;50.792;8.320;2023-07-08T12:05:31;34.30;75.30
17813;DHT22;9030;50.792;8.320;2023-07-08T12:07:58;34.30;75.40
17813;DHT22;9030;50.792;8.320;2023-07-08T12:10:28;33.70;76.60
17813;DHT22;9030;50.792;8.320;2023-07-08T12:12:58;33.30;75.20
17813;DHT22;9030;50.792;8.320;2023-07-08T12:15:26;33.80;75.80
17813;DHT22;9030;50.792;8.320;2023-07-08T12:17:55;34.50;75.40
17813;DHT22;9030;50.792;8.320;2023-07-08T12:20:25;34.40;75.50
17813;DHT22;9030;50.792;8.320;2023-07-08T12:22:54;34.60;74.20
17813;DHT22;9030;50.792;8.320;2023-07-08T12:25:23;34.70;73.50
17813;DHT22;9030;50.792;8.320;2023-07-08T12:27:51;33.80;73.40
17813;DHT22;9030;50.792;8.320;2023-07-08T12:30:17;34.30;75.70
17813;DHT22;9030;50.792;8.320;2023-07-08T12:32:44;34.40;73.80
17813;DHT22;9030;50.792;8.320;2023-07-08T12:35:21;35.30;73.40
17813;DHT22;9030;50.792;8.320;2023-07-08T12:37:48;35.40;73.70
17813;DHT22;9030;50.792;8.320;2023-07-08T12:40:16;34.90;73.90
17813;DHT22;9030;50.792;8.320;2023-07-08T12:42:43;34.70;72.50
17813;DHT22;9030;50.792;8.320;2023-07-08T12:45:15;35.10;73.00
17813;DHT22;9030;50.792;8.320;2023-07-08T12:47:43;35.00;72.60
17813;DHT22;9030;50.792;8.320;2023-07-08T12:50:11;35.10;72.20
17813;DHT22;9030;50.792;8.320;2023-07-08T12:52:38;35.40;71.10
17813;DHT22;9030;50.792;8.320;2023-07-08T12:55:05;35.40;71.90
17813;DHT22;9030;50.792;8.320;2023-07-08T12:57:35;35.80;71.00
17813;DHT22;9030;50.792;8.320;2023-07-08T13:00:02;36.00;72.10
17813;DHT22;9030;50.792;8.320;2023-07-08T13:02:31;35.60;73.30
17813;DHT22;9030;50.792;8.320;2023-07-08T13:05:00;36.40;71.90
17813;DHT22;9030;50.792;8.320;2023-07-08T13:07:34;36.70;71.70
17813;DHT22;9030;50.792;8.320;2023-07-08T13:10:01;36.90;70.70
17813;DHT22;9030;50.792;8.320;2023-07-08T13:12:28;36.10;69.00
17813;DHT22;9030;50.792;8.320;2023-07-08T13:14:58;36.60;73.80
17813;DHT22;9030;50.792;8.320;2023-07-08T13:17:25;36.60;70.50
17813;DHT22;9030;50.792;8.320;2023-07-08T13:19:53;36.20;70.30
17813;DHT22;9030;50.792;8.320;2023-07-08T13:22:21;35.90;70.40
17813;DHT22;9030;50.792;8.320;2023-07-08T13:24:49;35.30;69.30
17813;DHT22;9030;50.792;8.320;2023-07-08T13:27:25;34.90;70.80
17813;DHT22;9030;50.792;8.320;2023-07-08T13:29:52;35.60;71.00
17813;DHT22;9030;50.792;8.320;2023-07-08T13:32:29;35.60;68.70
17813;DHT22;9030;50.792;8.320;2023-07-08T13:34:57;35.30;68.20
17813;DHT22;9030;50.792;8.320;2023-07-08T13:37:23;35.70;71.20
17813;DHT22;9030;50.792;8.320;2023-07-08T13:39:53;34.60;69.10
17813;DHT22;9030;50.792;8.320;2023-07-08T13:42:20;34.80;71.50
17813;DHT22;9030;50.792;8.320;2023-07-08T13:44:48;35.70;70.00
17813;DHT22;9030;50.792;8.320;2023-07-08T13:47:22;36.50;70.00
17813;DHT22;9030;50.792;8.320;2023-07-08T13:49:56;37.30;68.90
17813;DHT22;9030;50.792;8.320;2023-07-08T13:52:24;37.80;68.60
17813;DHT22;9030;50.792;8.320;2023-07-08T13:54:53;38.10;70.90
17813;DHT22;9030;50.792;8.320;2023-07-08T13:57:23;38.30;66.90
17813;DHT22;9030;50.792;8.320;2023-07-08T13:59:52;37.90;67.30
17813;DHT22;9030;50.792;8.320;2023-07-08T14:02:22;37.20;67.90
17813;DHT22;9030;50.792;8.320;2023-07-08T14:04:50;35.80;68.20
17813;DHT22;9030;50.792;8.320;2023-07-08T14:07:19;34.30;70.40
17813;DHT22;9030;50.792;8.320;2023-07-08T14:09:47;33.90;73.10
17813;DHT22;9030;50.792;8.320;2023-07-08T14:12:13;34.50;73.80
17813;DHT22;9030;50.792;8.320;2023-07-08T14:14:41;35.60;71.10
17813;DHT22;9030;50.792;8.320;2023-07-08T14:17:10;35.20;70.60
17813;DHT22;9030;50.792;8.320;2023-07-08T14:19:38;35.20;69.60
17813;DHT22;9030;50.792;8.320;2023-07-08T14:22:19;35.30;70.80
17813;DHT22;9030;50.792;8.320;2023-07-08T14:24:47;35.40;70.40
17813;DHT22;9030;50.792;8.320;2023-07-08T14:27:13;35.40;70.40
17813;DHT22;9030;50.792;8.320;2023-07-08T14:29:42;34.70;70.20
17813;DHT22;9030;50.792;8.320;2023-07-08T14:32:11;34.70;71.00
17813;DHT22;9030;50.792;8.320;2023-07-08T14:34:41;34.90;71.20
17813;DHT22;9030;50.792;8.320;2023-07-08T14:37:13;35.20;70.60
17813;DHT22;9030;50.792;8.320;2023-07-08T14:39:40;35.50;70.50
17813;DHT22;9030;50.792;8.320;2023-07-08T14:42:09;35.40;70.50
17813;DHT22;9030;50.792;8.320;2023-07-08T14:44:37;35.50;70.60
17813;DHT22;9030;50.792;8.320;2023-07-08T14:47:08;35.70;69.10
17813;DHT22;9030;50.792;8.320;2023-07-08T14:49:35;36.40;69.70
17813;DHT22;9030;50.792;8.320;2023-07-08T14:52:03;36.60;68.00
17813;DHT22;9030;50.792;8.320;2023-07-08T14:54:30;36.20;69.20
17813;DHT22;9030;50.792;8.320;2023-07-08T14:56:57;36.50;71.60
17813;DHT22;9030;50.792;8.320;2023-07-08T14:59:27;35.90;68.60
17813;DHT22;9030;50.792;8.320;2023-07-08T15:01:57;35.60;68.50
17813;DHT22;9030;50.792;8.320;2023-07-08T15:04:24;34.60;69.50
17813;DHT22;9030;50.792;8.320;2023-07-08T15:06:52;34.10;70.50
17813;DHT22;9030;50.792;8.320;2023-07-08T15:09:20;33.50;70.90
17813;DHT22;9030;50.792;8.320;2023-07-08T15:11:47;33.80;71.50
17813;DHT22;9030;50.792;8.320;2023-07-08T15:14:18;34.10;71.50
17813;DHT22;9030;50.792;8.320;2023-07-08T15:16:45;34.00;70.30
17813;DHT22;9030;50.792;8.320;2023-07-08T15:19:12;34.00;70.00
17813;DHT22;9030;50.792;8.320;2023-07-08T15:21:39;33.80;70.70
17813;DHT22;9030;50.792;8.320;2023-07-08T15:24:09;33.20;70.30
17813;DHT22;9030;50.792;8.320;2023-07-08T15:26:38;33.20;72.20
17813;DHT22;9030;50.792;8.320;2023-07-08T15:29:06;33.50;72.60
17813;DHT22;9030;50.792;8.320;2023-07-08T15:31:37;34.10;71.90
17813;DHT22;9030;50.792;8.320;2023-07-08T15:34:07;34.70;70.90
17813;DHT22;9030;50.792;8.320;2023-07-08T15:36:34;35.10;70.50
17813;DHT22;9030;50.792;8.320;2023-07-08T15:39:00;35.60;70.30
17813;DHT22;9030;50.792;8.320;2023-07-08T15:41:28;36.20;68.80
17813;DHT22;9030;50.792;8.320;2023-07-08T15:43:57;35.80;69.50
17813;DHT22;9030;50.792;8.320;2023-07-08T15:46:32;35.70;69.10
17813;DHT22;9030;50.792;8.320;2023-07-08T15:49:00;36.10;68.30
17813;DHT22;9030;50.792;8.320;2023-07-08T15:51:27;36.40;71.70
17813;DHT22;9030;50.792;8.320;2023-07-08T15:53:54;36.20;69.40
17813;DHT22;9030;50.792;8.320;2023-07-08T15:56:21;36.10;69.00